Time;durP1;ratioP1;P1;durP2;ratioP2;P2;SDS_P1;SDS_P2;PMS_P1;PMS_P2;Temp;Humidity;BMP_temperature;BMP_pressure;BME280_temperature;BME280_humidity;BME280_pressure;Samples;Min_cycle;Max_cycle;Signal;HPM_P1;HPM_P2
2021/08/31 00:03:41;;;;;;;;;;;13.70;99.90;;;12.61;100.00;95822.63;10426424;28;2022;-82
2021/08/31 00:08:44;;;;;;;;;;;13.70;99.90;;;12.43;100.00;95822.22;10413976;28;1927;-83
2021/08/31 00:13:47;;;;;;;;;;;13.60;99.90;;;12.33;100.00;95818.81;10425420;28;2120;-82
2021/08/31 00:19:10;;;;;;;;;;;13.50;99.90;;;12.30;100.00;95814.81;10422730;28;1998;-80
2021/08/31 00:24:33;;;;;;;;;;;13.40;99.90;;;12.27;100.00;95823.44;10421374;28;2096;-80
2021/08/31 00:29:55;;;;;;;;;;;13.40;99.90;;;12.26;100.00;95834.50;10420822;28;1831;-80
2021/08/31 00:35:18;;;;;;;;;;;13.30;99.90;;;12.33;100.00;95833.09;10421477;28;2089;-80
2021/08/31 00:40:21;;;;;;;;;;;13.40;99.90;;;12.38;100.00;95833.06;10422985;28;2257;-80
2021/08/31 00:45:24;;;;;;;;;;;13.50;99.90;;;12.43;100.00;95832.22;10441723;28;1879;-79
2021/08/31 00:50:28;;;;;;;;;;;13.40;99.90;;;12.48;100.00;95834.88;10424787;28;2429;-80
2021/08/31 00:55:31;;;;;;;;;;;13.50;99.90;;;12.45;100.00;95847.00;10420712;28;2166;-81
2021/08/31 01:00:34;;;;;;;;;;;13.50;99.90;;;12.47;100.00;95843.22;10433802;28;2254;-81
2021/08/31 01:05:37;;;;;;;;;;;13.50;99.90;;;12.48;100.00;95850.25;10434736;28;2443;-80
2021/08/31 01:10:41;;;;;;;;;;;13.50;99.90;;;12.50;100.00;95856.94;10412528;28;2102;-81
2021/08/31 01:16:03;;;;;;;;;;;13.60;99.90;;;12.50;100.00;95854.25;10415063;28;2152;-80
2021/08/31 01:21:09;;;;;;;;;;;13.50;99.90;;;12.51;100.00;95855.06;10426658;28;1967;-82
2021/08/31 01:26:24;;;;;;;;;;;13.50;99.90;;;12.53;100.00;95852.88;10411731;28;2173;-82
2021/08/31 01:31:47;;;;;;;;;;;13.60;99.90;;;12.54;100.00;95851.81;10419037;28;1936;-80
2021/08/31 01:36:50;;;;;;;;;;;13.60;99.90;;;12.54;100.00;95849.09;10422606;28;2173;-81
2021/08/31 01:41:53;;;;;;;;;;;13.50;99.90;;;12.52;100.00;95862.84;10423220;28;1973;-81
2021/08/31 01:46:56;;;;;;;;;;;13.60;99.90;;;12.54;100.00;95859.91;10418538;28;2033;-80
2021/08/31 01:51:59;;;;;;;;;;;13.50;99.90;;;12.54;100.00;95859.91;10409290;28;2225;-78
2021/08/31 01:57:04;;;;;;;;;;;13.60;99.90;;;12.55;100.00;95856.91;10406119;28;2194;-79
2021/08/31 02:02:07;;;;;;;;;;;13.60;99.90;;;12.51;100.00;95855.06;10406424;28;2311;-79
2021/08/31 02:07:10;;;;;;;;;;;13.50;99.90;;;12.56;100.00;95865.81;10402430;28;2039;-77
2021/08/31 02:12:13;;;;;;;;;;;13.50;99.90;;;12.51;100.00;95855.84;10405964;28;2248;-80
2021/08/31 02:17:16;;;;;;;;;;;13.60;99.90;;;12.51;100.00;95865.84;10406841;28;2064;-78
2021/08/31 02:22:19;;;;;;;;;;;13.60;99.90;;;12.55;100.00;95862.31;10397637;28;2218;-80
2021/08/31 02:27:21;;;;;;;;;;;13.60;99.90;;;12.53;100.00;95864.47;10403118;28;2099;-80
2021/08/31 02:32:24;;;;;;;;;;;13.50;99.90;;;12.51;100.00;95872.03;10404220;28;2008;-79
2021/08/31 02:37:27;;;;;;;;;;;13.50;99.90;;;12.50;100.00;95867.72;10401210;28;2167;-79
2021/08/31 02:42:30;;;;;;;;;;;13.50;99.90;;;12.48;100.00;95871.81;10404086;28;2032;-79
2021/08/31 02:47:33;;;;;;;;;;;13.50;99.90;;;12.48;100.00;95875.31;10397221;28;2145;-79
2021/08/31 02:52:36;;;;;;;;;;;13.50;99.90;;;12.42;100.00;95874.53;10400650;28;2153;-81
2021/08/31 02:57:39;;;;;;;;;;;13.50;99.90;;;12.41;100.00;95875.63;10401251;28;2013;-80
2021/08/31 03:02:42;;;;;;;;;;;13.50;99.90;;;12.45;100.00;95867.78;10403855;28;2190;-79
2021/08/31 03:07:45;;;;;;;;;;;13.50;99.90;;;12.41;100.00;95869.44;10412376;28;2121;-81
2021/08/31 03:12:47;;;;;;;;;;;13.50;99.90;;;12.35;100.00;95870.56;10419934;28;2099;-81
2021/08/31 03:17:52;;;;;;;;;;;13.40;99.90;;;12.24;100.00;95871.72;10421490;28;2158;-79
2021/08/31 03:23:00;;;;;;;;;;;13.40;99.90;;;12.17;100.00;95885.53;10407880;28;2205;-79
2021/08/31 03:28:03;;;;;;;;;;;13.30;99.90;;;12.16;100.00;95886.63;10419784;28;2105;-80
2021/08/31 03:33:05;;;;;;;;;;;13.30;99.90;;;12.21;100.00;95889.25;10402211;28;2061;-78
2021/08/31 03:38:08;;;;;;;;;;;13.30;99.90;;;12.22;100.00;95898.97;10400034;28;2086;-79
2021/08/31 03:43:11;;;;;;;;;;;13.30;99.90;;;12.12;100.00;95896.34;10407269;28;2190;-80
2021/08/31 03:48:14;;;;;;;;;;;13.30;99.90;;;12.01;100.00;95902.88;10430497;28;2028;-80
2021/08/31 03:53:17;;;;;;;;;;;13.10;99.90;;;12.03;100.00;95908.81;10416148;28;2114;-81
2021/08/31 03:58:20;;;;;;;;;;;13.10;99.90;;;12.09;100.00;95907.69;10421954;28;2013;-80
2021/08/31 04:03:23;;;;;;;;;;;13.10;99.90;;;12.15;100.00;95920.84;10421508;28;2169;-81
2021/08/31 04:08:25;;;;;;;;;;;13.20;99.90;;;12.14;100.00;95929.19;10408130;28;2113;-80
2021/08/31 04:13:28;;;;;;;;;;;13.20;99.90;;;12.09;100.00;95930.03;10409762;28;2081;-80
2021/08/31 04:18:31;;;;;;;;;;;13.20;99.90;;;12.13;100.00;95941.84;10408468;28;2263;-81
2021/08/31 04:23:34;;;;;;;;;;;13.20;99.90;;;12.14;100.00;95946.16;10399389;28;2128;-80
2021/08/31 04:28:37;;;;;;;;;;;13.20;99.90;;;12.22;100.00;95938.59;10398000;28;2200;-81
2021/08/31 04:33:40;;;;;;;;;;;13.20;99.90;;;12.22;100.00;95939.41;10398250;28;2140;-80
2021/08/31 04:38:43;;;;;;;;;;;13.20;99.90;;;12.23;100.00;95942.91;10400746;28;2093;-80
2021/08/31 04:43:46;;;;;;;;;;;13.30;99.90;;;12.28;100.00;95949.06;10394007;28;2199;-79
2021/08/31 04:48:49;;;;;;;;;;;13.30;99.90;;;12.33;100.00;95957.09;10405477;28;2209;-80
2021/08/31 04:53:52;;;;;;;;;;;13.30;99.90;;;12.34;100.00;95939.84;10403108;28;2025;-80
2021/08/31 04:58:55;;;;;;;;;;;13.30;99.90;;;12.38;100.00;95948.97;10405139;28;2101;-81
2021/08/31 05:03:58;;;;;;;;;;;13.40;99.90;;;12.45;100.00;95949.44;10421678;28;2097;-79
2021/08/31 05:09:00;;;;;;;;;;;13.40;99.90;;;12.47;100.00;95956.44;10422459;28;2097;-81
2021/08/31 05:14:04;;;;;;;;;;;13.50;99.90;;;12.53;100.00;95960.72;10403082;28;2204;-81
2021/08/31 05:19:06;;;;;;;;;;;13.50;99.90;;;12.56;100.00;95962.88;10405554;28;2159;-79
2021/08/31 05:24:09;;;;;;;;;;;13.50;99.90;;;12.53;100.00;95966.91;10399809;28;2526;-79
2021/08/31 05:29:12;;;;;;;;;;;13.50;99.90;;;12.48;100.00;95968.88;10398783;28;2117;-80
2021/08/31 05:34:15;;;;;;;;;;;13.50;99.90;;;12.44;100.00;95982.09;10399521;28;2753;-79
2021/08/31 05:39:18;;;;;;;;;;;13.50;99.90;;;12.44;100.00;95977.50;10391002;28;2089;-78
2021/08/31 05:44:20;;;;;;;;;;;13.50;99.90;;;12.52;100.00;95986.09;10400066;28;2021;-78
2021/08/31 05:49:25;;;;;;;;;;;13.60;99.90;;;12.63;100.00;95979.53;10395067;28;1919;-80
2021/08/31 05:54:28;;;;;;;;;;;13.60;99.90;;;12.74;100.00;95986.47;10397507;28;1877;-76
2021/08/31 05:59:31;;;;;;;;;;;13.60;99.90;;;12.88;100.00;95987.44;10403427;28;1901;-78
2021/08/31 06:04:35;;;;;;;;;;;13.80;99.90;;;12.96;100.00;95986.00;10398265;28;2057;-82
2021/08/31 06:09:38;;;;;;;;;;;13.80;99.90;;;12.93;100.00;95987.38;10406484;28;2073;-82
2021/08/31 06:14:41;;;;;;;;;;;13.80;99.90;;;12.98;100.00;95987.34;10402773;28;1968;-79
2021/08/31 06:19:44;;;;;;;;;;;13.90;99.90;;;13.00;100.00;95992.47;10404210;28;1890;-79
2021/08/31 06:24:46;;;;;;;;;;;13.90;99.90;;;13.06;100.00;96001.31;10397946;28;1974;-79
2021/08/31 06:29:49;;;;;;;;;;;14.00;99.90;;;13.07;100.00;95997.53;10399206;28;2451;-79
2021/08/31 06:35:12;;;;;;;;;;;14.00;99.90;;;13.08;100.00;96007.22;10397355;28;2096;-78
2021/08/31 06:40:15;;;;;;;;;;;14.00;99.90;;;13.06;100.00;96002.13;10394724;28;2025;-79
2021/08/31 06:45:18;;;;;;;;;;;14.00;99.90;;;12.87;100.00;96007.41;10395884;28;2105;-79
2021/08/31 06:50:21;;;;;;;;;;;14.00;99.90;;;12.73;100.00;96008.34;10395439;28;2116;-80
2021/08/31 06:55:24;;;;;;;;;;;13.80;99.90;;;12.66;100.00;96009.47;10396575;28;2008;-79
2021/08/31 07:00:27;;;;;;;;;;;13.70;99.90;;;12.70;100.00;96017.78;10413305;28;2021;-78
2021/08/31 07:05:30;;;;;;;;;;;13.70;99.90;;;12.77;100.00;96014.75;10399187;28;2232;-79
2021/08/31 07:10:33;;;;;;;;;;;13.70;99.90;;;12.73;100.00;96014.53;10415639;28;2100;-77
2021/08/31 07:15:36;;;;;;;;;;;13.70;99.90;;;12.77;100.00;96020.16;10406305;28;2171;-80
2021/08/31 07:20:38;;;;;;;;;;;13.70;99.90;;;12.89;100.00;96024.09;10412434;28;2099;-80
2021/08/31 07:25:41;;;;;;;;;;;13.80;99.90;;;13.00;100.00;96038.34;10408798;28;2053;-80
2021/08/31 07:30:44;;;;;;;;;;;13.90;99.90;;;12.88;100.00;96035.19;10398090;28;2083;-78
2021/08/31 07:35:47;;;;;;;;;;;13.90;99.90;;;12.89;100.00;96037.59;10399668;28;2011;-80
2021/08/31 07:40:50;;;;;;;;;;;13.90;99.90;;;12.88;100.00;96037.88;10397417;28;2053;-81
2021/08/31 07:45:53;;;;;;;;;;;13.80;99.90;;;12.86;100.00;96030.06;10407875;28;2149;-78
2021/08/31 07:50:56;;;;;;;;;;;13.80;99.90;;;12.77;100.00;96041.72;10405498;28;2219;-79
2021/08/31 07:55:59;;;;;;;;;;;13.80;99.90;;;12.74;100.00;96058.50;10413540;28;2080;-82
2021/08/31 08:01:02;;;;;;;;;;;13.70;99.90;;;12.75;100.00;96047.41;10436176;28;2025;-82
2021/08/31 08:06:05;;;;;;;;;;;13.70;99.90;;;12.76;100.00;96065.22;10439763;28;2009;-79
2021/08/31 08:11:08;;;;;;;;;;;13.80;99.90;;;12.73;100.00;96073.06;10426908;28;1997;-82
2021/08/31 08:16:10;;;;;;;;;;;13.70;99.90;;;12.71;100.00;96081.41;10407261;28;2061;-80
2021/08/31 08:21:13;;;;;;;;;;;13.60;99.90;;;12.88;100.00;96092.66;10412506;28;1910;-80
2021/08/31 08:26:16;;;;;;;;;;;13.70;99.90;;;13.20;100.00;96088.63;10411557;28;2001;-77
2021/08/31 08:31:19;;;;;;;;;;;14.00;99.90;;;13.28;100.00;96096.16;10401527;28;2184;-79
2021/08/31 08:36:22;;;;;;;;;;;14.10;99.90;;;13.28;100.00;96090.75;10406672;28;2104;-79
2021/08/31 08:41:25;;;;;;;;;;;14.20;99.90;;;13.23;100.00;96098.88;10401575;28;2057;-79
2021/08/31 08:46:31;;;;;;;;;;;14.20;99.90;;;13.07;100.00;96100.88;10398675;28;2052;-78
2021/08/31 08:51:34;;;;;;;;;;;14.10;99.90;;;13.24;100.00;96101.34;10396488;28;2068;-77
2021/08/31 08:56:37;;;;;;;;;;;14.10;99.90;;;13.62;100.00;96098.03;10405232;28;2077;-79
2021/08/31 09:01:40;;;;;;;;;;;14.30;99.90;;;14.12;100.00;96103.97;10406754;28;2247;-79
2021/08/31 09:06:43;;;;;;;;;;;14.70;99.90;;;14.62;100.00;96107.19;10404916;28;2773;-79
2021/08/31 09:11:47;;;;;;;;;;;15.10;99.90;;;14.95;100.00;96108.09;10398452;28;2108;-79
2021/08/31 09:16:50;;;;;;;;;;;15.50;99.90;;;15.06;100.00;96107.66;10403643;28;2141;-80
2021/08/31 09:21:52;;;;;;;;;;;15.60;99.90;;;14.92;100.00;96106.78;10400395;28;2112;-78
2021/08/31 09:26:55;;;;;;;;;;;15.70;99.90;;;14.76;100.00;96113.50;10401111;28;2114;-78
2021/08/31 09:31:58;;;;;;;;;;;15.70;99.90;;;14.73;100.00;96111.38;10399880;28;2228;-80
2021/08/31 09:37:01;;;;;;;;;;;15.50;99.90;;;15.44;100.00;96121.13;10394986;28;2030;-80
2021/08/31 09:42:04;;;;;;;;;;;15.70;99.90;;;15.44;95.46;96117.63;10397348;28;2212;-81
2021/08/31 09:47:07;;;;;;;;;;;16.10;99.90;;;15.45;97.31;96121.94;10414640;28;2165;-81
2021/08/31 09:52:10;;;;;;;;;;;16.30;99.90;;;15.35;96.83;96118.31;10413513;28;2103;-78
2021/08/31 09:57:13;;;;;;;;;;;16.30;99.90;;;15.83;96.37;96103.72;10401157;28;2131;-78
2021/08/31 10:02:16;;;;;;;;;;;16.40;99.90;;;16.95;89.92;96104.19;10399050;28;2483;-78
2021/08/31 10:07:18;;;;;;;;;;;16.90;99.90;;;17.74;80.23;96099.03;10409071;28;2078;-81
2021/08/31 10:12:21;;;;;;;;;;;17.80;99.90;;;16.87;83.06;96096.78;10414411;28;2130;-79
2021/08/31 10:17:24;;;;;;;;;;;17.70;99.90;;;15.80;89.18;96107.03;10402124;28;2029;-80
2021/08/31 10:22:27;;;;;;;;;;;17.10;99.90;;;15.66;91.64;96121.34;10419653;28;2033;-79
2021/08/31 10:27:30;;;;;;;;;;;16.70;99.90;;;15.16;92.77;96132.97;10410034;28;2507;-78
2021/08/31 10:32:33;;;;;;;;;;;16.40;99.90;;;15.22;92.96;96134.50;10417778;28;2043;-79
2021/08/31 10:37:36;;;;;;;;;;;16.20;99.90;;;14.99;93.77;96134.28;10402963;28;2089;-79
2021/08/31 10:42:39;;;;;;;;;;;16.00;99.90;;;15.04;94.04;96136.94;10400387;28;1989;-76
2021/08/31 10:47:42;;;;;;;;;;;16.00;99.90;;;16.11;89.04;96134.41;10397037;28;2128;-81
2021/08/31 10:52:45;;;;;;;;;;;16.50;99.90;;;16.46;87.32;96143.72;10414363;28;1774;-82
2021/08/31 10:57:48;;;;;;;;;;;16.90;99.90;;;15.35;82.83;96142.69;10409143;28;2131;-80
2021/08/31 11:02:51;;;;;;;;;;;16.70;99.90;;;15.33;86.09;96158.44;10412235;28;2100;-80
2021/08/31 11:07:55;;;;;;;;;;;16.40;99.90;;;15.33;86.48;96154.91;10424323;28;2132;-81
2021/08/31 11:12:58;;;;;;;;;;;16.30;99.90;;;15.46;86.01;96158.75;10411685;28;2018;-80
2021/08/31 11:18:02;;;;;;;;;;;16.30;99.90;;;15.50;85.65;96176.06;10404587;28;2042;-80
2021/08/31 11:23:04;;;;;;;;;;;16.40;99.90;;;15.54;83.93;96167.03;10399582;28;2061;-82
2021/08/31 11:28:07;;;;;;;;;;;16.20;99.90;;;15.59;81.97;96166.97;10404418;28;2088;-80
2021/08/31 11:33:11;;;;;;;;;;;16.50;99.90;;;15.24;83.80;96189.19;10410745;28;1903;-79
2021/08/31 11:38:13;;;;;;;;;;;16.40;99.90;;;15.35;80.42;96180.63;10405523;28;2079;-79
2021/08/31 11:43:16;;;;;;;;;;;16.20;99.90;;;15.76;76.57;96173.78;10411755;28;2029;-81
2021/08/31 11:48:19;;;;;;;;;;;16.50;99.90;;;15.82;77.41;96180.72;10417979;28;2108;-78
2021/08/31 11:53:22;;;;;;;;;;;16.60;99.90;;;15.92;72.80;96194.09;10402776;28;2295;-79
2021/08/31 11:58:25;;;;;;;;;;;16.80;99.90;;;15.80;73.53;96196.47;10399290;28;2085;-80
2021/08/31 12:03:28;;;;;;;;;;;16.80;99.90;;;15.86;73.45;96187.16;10399527;28;2217;-79
2021/08/31 12:08:31;;;;;;;;;;;16.70;99.90;;;16.19;71.67;96194.16;10398978;28;2145;-80
2021/08/31 12:13:34;;;;;;;;;;;16.90;99.90;;;16.44;67.83;96200.22;10412232;28;2157;-82
2021/08/31 12:18:37;;;;;;;;;;;17.20;99.90;;;17.10;66.49;96198.91;10400682;28;1990;-79
2021/08/31 12:23:40;;;;;;;;;;;17.70;99.90;;;17.33;68.03;96190.81;10408207;28;2101;-79
2021/08/31 12:28:43;;;;;;;;;;;18.00;99.90;;;17.71;64.79;96174.97;10400177;28;2124;-79
2021/08/31 12:33:47;;;;;;;;;;;18.20;99.90;;;18.03;64.43;96179.38;10415841;28;2097;-80
2021/08/31 12:38:50;;;;;;;;;;;18.60;99.90;;;17.05;67.13;96179.19;10418875;28;2177;-79
2021/08/31 12:43:55;;;;;;;;;;;18.40;99.90;;;17.06;64.22;96189.78;10417875;28;2144;-82
2021/08/31 12:48:58;;;;;;;;;;;18.20;99.90;;;18.14;65.05;96175.28;10409278;28;2165;-79
2021/08/31 12:54:01;;;;;;;;;;;18.50;99.90;;;17.89;64.62;96173.22;10402040;28;2204;-78
2021/08/31 12:59:04;;;;;;;;;;;18.90;99.90;;;17.65;66.15;96173.50;10405263;28;2150;-77
2021/08/31 13:04:07;;;;;;;;;;;18.60;99.90;;;16.89;69.05;96173.31;10416450;28;2217;-77
2021/08/31 13:09:11;;;;;;;;;;;18.10;99.90;;;17.37;65.90;96165.44;10412760;28;2304;-78
2021/08/31 13:14:14;;;;;;;;;;;18.20;99.90;;;17.25;68.13;96170.63;10407086;28;2122;-80
2021/08/31 13:19:17;;;;;;;;;;;18.30;99.90;;;16.72;70.00;96166.56;10406635;28;2101;-79
2021/08/31 13:24:20;;;;;;;;;;;18.00;99.90;;;17.23;66.86;96168.19;10401115;28;2084;-79
2021/08/31 13:29:23;;;;;;;;;;;18.00;99.90;;;18.10;65.47;96164.22;10406722;28;2212;-79
2021/08/31 13:34:26;;;;;;;;;;;18.50;99.90;;;18.33;63.47;96172.34;10408569;28;2096;-79
2021/08/31 13:39:29;;;;;;;;;;;18.90;99.90;;;18.56;62.04;96162.16;10407646;28;2141;-77
2021/08/31 13:44:35;;;;;;;;;;;19.10;99.90;;;18.37;60.29;96157.78;10405542;28;2037;-78
2021/08/31 13:49:38;;;;;;;;;;;19.20;99.90;;;18.48;60.28;96157.50;10402787;28;2097;-78
2021/08/31 13:54:41;;;;;;;;;;;19.30;99.90;;;17.59;60.77;96178.25;10402322;28;2159;-81
2021/08/31 13:59:45;;;;;;;;;;;18.90;99.90;;;17.28;63.82;96165.38;10401612;28;2061;-80
2021/08/31 14:04:47;;;;;;;;;;;18.30;99.90;;;17.09;65.46;96172.06;10401253;28;2223;-79
2021/08/31 14:09:52;;;;;;;;;;;18.20;99.90;;;17.03;65.62;96169.44;10419870;28;2010;-81
2021/08/31 14:14:54;;;;;;;;;;;18.10;99.90;;;17.26;66.13;96164.06;10400164;28;3268;-78
2021/08/31 14:19:57;;;;;;;;;;;18.10;99.90;;;17.77;65.48;96147.38;10413922;28;2835;-77
2021/08/31 14:25:00;;;;;;;;;;;18.30;99.90;;;18.23;61.76;96162.50;10424473;28;2013;-80
2021/08/31 14:30:03;;;;;;;;;;;18.90;99.90;;;18.43;60.39;96173.97;10403550;28;2337;-79
2021/08/31 14:35:06;;;;;;;;;;;19.10;99.90;;;18.01;60.57;96170.72;10414924;28;2220;-80
2021/08/31 14:40:10;;;;;;;;;;;18.90;99.90;;;17.54;63.31;96181.06;10397157;28;2014;-80
2021/08/31 14:45:13;;;;;;;;;;;18.60;99.90;;;17.50;63.74;96183.63;10404538;28;2024;-79
2021/08/31 14:50:16;;;;;;;;;;;18.50;99.90;;;17.68;63.85;96189.97;10402333;28;2469;-80
2021/08/31 14:55:19;;;;;;;;;;;18.40;99.90;;;18.02;62.55;96186.72;10406547;28;2013;-79
2021/08/31 15:00:22;;;;;;;;;;;18.70;99.90;;;17.79;63.49;96180.50;10404788;28;2002;-80
2021/08/31 15:05:25;;;;;;;;;;;18.70;99.90;;;17.37;62.35;96183.63;10402864;28;2037;-80
2021/08/31 15:10:28;;;;;;;;;;;18.50;99.90;;;17.37;64.39;96175.50;10402960;28;1843;-78
2021/08/31 15:15:30;;;;;;;;;;;18.30;99.90;;;17.21;65.19;96173.13;10401942;28;2092;-77
2021/08/31 15:20:33;;;;;;;;;;;18.20;99.90;;;17.18;65.04;96171.03;10400589;28;1763;-77
2021/08/31 15:25:36;;;;;;;;;;;18.20;99.90;;;16.76;65.08;96185.78;10403477;28;1983;-79
2021/08/31 15:30:39;;;;;;;;;;;18.00;99.90;;;16.78;66.62;96180.03;10395438;28;2041;-79
2021/08/31 15:35:42;;;;;;;;;;;17.80;99.90;;;16.98;64.94;96195.91;10402908;28;2057;-79
2021/08/31 15:40:45;;;;;;;;;;;17.90;99.90;;;17.33;62.99;96188.09;10395655;28;2104;-78
2021/08/31 15:45:48;;;;;;;;;;;18.20;99.90;;;17.36;64.64;96184.75;10402361;28;2386;-80
2021/08/31 15:50:51;;;;;;;;;;;18.20;99.90;;;17.07;65.41;96202.25;10396580;28;2131;-79
2021/08/31 15:55:54;;;;;;;;;;;18.20;99.90;;;17.04;67.24;96202.84;10400975;28;2013;-79
2021/08/31 16:00:57;;;;;;;;;;;18.10;99.90;;;16.47;68.55;96203.13;10397101;28;1749;-79
2021/08/31 16:06:00;;;;;;;;;;;17.80;99.90;;;16.35;70.18;96224.53;10429547;28;2084;-81
2021/08/31 16:11:08;;;;;;;;;;;17.50;99.90;;;16.29;70.01;96220.31;10432131;28;2140;-79
2021/08/31 16:16:11;;;;;;;;;;;17.30;99.90;;;16.29;69.87;96217.59;10400203;28;3400;-81
2021/08/31 16:21:14;;;;;;;;;;;17.30;99.90;;;16.18;69.89;96219.69;10407382;28;2757;-78
2021/08/31 16:26:17;;;;;;;;;;;17.30;99.90;;;16.10;70.17;96220.38;10397105;28;2003;-79
2021/08/31 16:31:20;;;;;;;;;;;17.20;99.90;;;16.17;68.98;96220.78;10396715;28;2354;-79
2021/08/31 16:36:23;;;;;;;;;;;17.20;99.90;;;16.23;69.70;96221.50;10401359;28;1698;-78
2021/08/31 16:41:28;;;;;;;;;;;17.20;99.90;;;16.29;68.72;96231.16;10399607;28;1978;-79
2021/08/31 16:46:31;;;;;;;;;;;17.20;99.90;;;16.15;69.12;96225.69;10421738;28;2018;-79
2021/08/31 16:51:34;;;;;;;;;;;17.20;99.90;;;16.03;70.96;96233.50;10404268;28;2361;-79
2021/08/31 16:56:37;;;;;;;;;;;17.10;99.90;;;16.00;71.50;96239.50;10396413;28;2120;-80
2021/08/31 17:01:40;;;;;;;;;;;17.00;99.90;;;15.99;71.71;96235.19;10400922;28;2009;-80
2021/08/31 17:06:43;;;;;;;;;;;17.00;99.90;;;15.99;71.34;96240.63;10401076;28;1970;-81
2021/08/31 17:11:46;;;;;;;;;;;17.00;99.90;;;16.04;70.16;96229.69;10408502;28;1998;-80
2021/08/31 17:16:48;;;;;;;;;;;17.00;99.90;;;15.94;69.91;96241.50;10408009;28;2009;-81
2021/08/31 17:21:51;;;;;;;;;;;16.90;99.90;;;15.93;69.94;96228.25;10409590;28;1999;-81
2021/08/31 17:26:54;;;;;;;;;;;16.90;99.90;;;15.75;71.67;96238.00;10419205;28;2034;-80
2021/08/31 17:31:58;;;;;;;;;;;16.90;99.90;;;15.68;71.78;96240.28;10411967;28;2022;-80
2021/08/31 17:37:01;;;;;;;;;;;16.70;99.90;;;15.53;72.04;96248.63;10406517;28;1872;-81
2021/08/31 17:42:04;;;;;;;;;;;16.70;99.90;;;15.38;73.40;96263.19;10401719;28;2386;-82
2021/08/31 17:47:07;;;;;;;;;;;16.60;99.90;;;15.12;75.20;96262.72;10437297;28;1848;-81
2021/08/31 17:52:11;;;;;;;;;;;16.40;99.90;;;14.99;76.21;96277.75;10420806;28;2013;-80
2021/08/31 17:57:14;;;;;;;;;;;16.20;99.90;;;14.95;77.16;96287.56;10409606;28;2099;-79
2021/08/31 18:02:16;;;;;;;;;;;16.10;99.90;;;14.97;78.38;96285.38;10402539;28;2053;-81
2021/08/31 18:07:19;;;;;;;;;;;16.00;99.90;;;15.03;78.33;96294.25;10406558;28;2140;-80
2021/08/31 18:12:22;;;;;;;;;;;16.10;99.90;;;15.02;78.97;96301.56;10402933;28;2068;-79
2021/08/31 18:17:25;;;;;;;;;;;16.10;99.90;;;14.99;79.56;96296.72;10405469;28;2159;-79
2021/08/31 18:22:36;;;;;;;;;;;16.10;99.90;;;14.95;79.79;96303.81;10396924;28;2038;-79
2021/08/31 18:27:39;;;;;;;;;;;16.10;99.90;;;14.78;81.10;96311.56;10396270;28;2143;-79
2021/08/31 18:32:41;;;;;;;;;;;16.00;99.90;;;14.73;82.56;96325.16;10401249;28;2034;-80
2021/08/31 18:37:46;;;;;;;;;;;15.90;99.90;;;14.82;82.37;96323.41;10408240;28;2275;-78
2021/08/31 18:42:49;;;;;;;;;;;15.90;99.90;;;14.76;84.00;96327.28;10404995;28;2096;-79
2021/08/31 18:47:52;;;;;;;;;;;15.90;99.90;;;14.68;85.35;96338.72;10415094;28;2111;-79
2021/08/31 18:52:55;;;;;;;;;;;15.80;99.90;;;14.56;85.53;96342.63;10411834;28;2200;-78
2021/08/31 18:57:58;;;;;;;;;;;15.70;99.90;;;14.51;86.53;96341.88;10396353;28;2153;-81
2021/08/31 19:03:01;;;;;;;;;;;15.60;99.90;;;14.44;87.92;96344.88;10407141;28;2073;-80
2021/08/31 19:08:04;;;;;;;;;;;15.60;99.90;;;14.47;87.30;96347.03;10397252;28;2123;-79
2021/08/31 19:13:07;;;;;;;;;;;15.50;99.90;;;14.50;87.85;96351.88;10393138;28;2064;-78
2021/08/31 19:18:10;;;;;;;;;;;15.50;99.90;;;14.42;88.50;96349.75;10394922;28;2347;-78
2021/08/31 19:23:13;;;;;;;;;;;15.50;99.90;;;14.40;89.61;96349.25;10389797;28;2096;-80
2021/08/31 19:28:16;;;;;;;;;;;15.50;99.90;;;14.46;88.26;96356.25;10400972;28;2238;-79
2021/08/31 19:33:19;;;;;;;;;;;15.40;99.90;;;14.40;89.23;96349.25;10399189;28;2147;-77
2021/08/31 19:38:21;;;;;;;;;;;15.50;99.90;;;14.41;89.29;96347.34;10399020;28;2101;-77
2021/08/31 19:43:24;;;;;;;;;;;15.40;99.90;;;14.40;90.02;96345.72;10412920;28;2020;-77
2021/08/31 19:48:27;;;;;;;;;;;15.50;99.90;;;14.43;90.31;96353.25;10405873;28;2057;-82
2021/08/31 19:53:31;;;;;;;;;;;15.40;99.90;;;14.47;89.71;96360.56;10425533;28;2018;-82
2021/08/31 19:58:34;;;;;;;;;;;15.50;99.90;;;14.42;91.58;96367.88;10413195;28;2132;-79
2021/08/31 20:03:37;;;;;;;;;;;15.50;99.90;;;14.31;96.41;96376.09;10408212;28;2183;-80
2021/08/31 20:08:40;;;;;;;;;;;15.50;99.90;;;14.02;98.72;96373.31;10418144;28;2077;-79
2021/08/31 20:13:43;;;;;;;;;;;15.20;99.90;;;13.78;100.00;96380.50;10419356;28;2161;-81
2021/08/31 20:18:45;;;;;;;;;;;15.00;99.90;;;13.69;100.00;96382.16;10404656;28;2123;-80
2021/08/31 20:23:48;;;;;;;;;;;14.90;99.90;;;13.62;100.00;96385.19;10410661;28;3365;-81
2021/08/31 20:28:51;;;;;;;;;;;14.80;99.90;;;13.58;100.00;96386.00;10411062;28;2788;-78
2021/08/31 20:33:54;;;;;;;;;;;14.70;99.90;;;13.53;100.00;96386.81;10402958;28;2249;-81
2021/08/31 20:38:57;;;;;;;;;;;14.70;99.90;;;13.53;100.00;96384.94;10403306;28;2385;-79
2021/08/31 20:44:00;;;;;;;;;;;14.60;99.90;;;13.50;100.00;96393.59;10405927;28;2242;-79
2021/08/31 20:49:03;;;;;;;;;;;14.60;99.90;;;13.47;100.00;96391.44;10419748;28;2161;-79
2021/08/31 20:54:06;;;;;;;;;;;14.60;99.90;;;13.47;100.00;96386.03;10406060;28;2022;-78
2021/08/31 20:59:09;;;;;;;;;;;14.60;99.90;;;13.41;100.00;96397.94;10410337;28;2164;-78
2021/08/31 21:04:12;;;;;;;;;;;14.60;99.90;;;13.39;100.00;96397.41;10401017;28;2097;-79
2021/08/31 21:09:15;;;;;;;;;;;14.50;99.90;;;13.33;100.00;96406.63;10401713;28;2576;-79
2021/08/31 21:14:18;;;;;;;;;;;14.50;99.90;;;13.32;100.00;96409.59;10406458;28;2100;-79
2021/08/31 21:19:21;;;;;;;;;;;14.40;99.90;;;13.30;100.00;96406.38;10402927;28;2267;-79
2021/08/31 21:24:23;;;;;;;;;;;14.40;99.90;;;13.23;100.00;96409.34;10396163;28;2154;-78
2021/08/31 21:29:26;;;;;;;;;;;14.40;99.90;;;13.23;100.00;96418.28;10400674;28;2073;-80
2021/08/31 21:34:29;;;;;;;;;;;14.30;99.90;;;13.23;100.00;96412.88;10403333;28;2139;-78
2021/08/31 21:39:34;;;;;;;;;;;14.30;99.90;;;13.23;100.00;96410.19;10399000;28;2054;-79
2021/08/31 21:44:37;;;;;;;;;;;14.20;99.90;;;13.27;100.00;96421.22;10407207;28;2065;-78
2021/08/31 21:49:40;;;;;;;;;;;14.30;99.90;;;13.19;100.00;96427.16;10402856;28;2081;-79
2021/08/31 21:54:43;;;;;;;;;;;14.30;99.90;;;13.20;100.00;96426.06;10402527;28;2141;-78
2021/08/31 21:59:45;;;;;;;;;;;14.30;99.90;;;13.21;100.00;96427.72;10412754;28;2370;-80
2021/08/31 22:04:48;;;;;;;;;;;14.30;99.90;;;13.22;100.00;96432.03;10410492;28;2054;-80
2021/08/31 22:09:51;;;;;;;;;;;14.20;99.90;;;13.28;100.00;96430.94;10413720;28;2129;-80
2021/08/31 22:14:54;;;;;;;;;;;14.30;99.90;;;13.31;100.00;96441.19;10418426;28;2176;-79
2021/08/31 22:19:57;;;;;;;;;;;14.30;99.90;;;13.38;100.00;96433.63;10408561;28;2047;-78
2021/08/31 22:25:00;;;;;;;;;;;14.30;99.90;;;13.33;100.00;96432.81;10399415;28;2050;-78
2021/08/31 22:30:03;;;;;;;;;;;14.30;99.90;;;13.38;100.00;96436.31;10396945;28;2035;-78
2021/08/31 22:35:06;;;;;;;;;;;14.40;99.90;;;13.38;100.00;96439.00;10400398;28;2089;-79
2021/08/31 22:40:09;;;;;;;;;;;14.40;99.90;;;13.37;100.00;96432.00;10397300;28;2170;-79
2021/08/31 22:45:12;;;;;;;;;;;14.40;99.90;;;13.30;100.00;96445.00;10397358;28;2123;-80
2021/08/31 22:50:15;;;;;;;;;;;14.30;99.90;;;13.23;100.00;96439.03;10396442;28;2208;-79
2021/08/31 22:55:17;;;;;;;;;;;14.30;99.90;;;13.17;100.00;96435.53;10398650;28;2149;-77
2021/08/31 23:00:20;;;;;;;;;;;14.20;99.90;;;13.11;100.00;96435.81;10396640;28;2065;-80
2021/08/31 23:05:24;;;;;;;;;;;14.20;99.90;;;13.12;100.00;96443.66;10400165;28;2117;-80